sensor_id;sensor_type;location;lat;lon;timestamp;P1;durP1;ratioP1;P2;durP2;ratioP2
29686;SDS011;16599;47.078;15.536;2023-04-24T00:01:23;10.65;;;6.82;;
29686;SDS011;16599;47.078;15.536;2023-04-24T00:03:49;10.90;;;6.30;;
29686;SDS011;16599;47.078;15.536;2023-04-24T00:06:17;12.57;;;8.00;;
29686;SDS011;16599;47.078;15.536;2023-04-24T00:08:44;12.68;;;6.38;;
29686;SDS011;16599;47.078;15.536;2023-04-24T00:11:10;14.77;;;10.23;;
29686;SDS011;16599;47.078;15.536;2023-04-24T00:13:37;12.10;;;6.80;;
29686;SDS011;16599;47.078;15.536;2023-04-24T00:16:04;14.32;;;9.63;;
29686;SDS011;16599;47.078;15.536;2023-04-24T00:18:32;14.70;;;10.57;;
29686;SDS011;16599;47.078;15.536;2023-04-24T00:20:58;9.75;;;7.43;;
29686;SDS011;16599;47.078;15.536;2023-04-24T00:23:26;13.65;;;9.25;;
29686;SDS011;16599;47.078;15.536;2023-04-24T00:25:53;10.18;;;7.60;;
29686;SDS011;16599;47.078;15.536;2023-04-24T00:28:20;27.85;;;8.65;;
29686;SDS011;16599;47.078;15.536;2023-04-24T00:30:46;9.05;;;6.28;;
29686;SDS011;16599;47.078;15.536;2023-04-24T00:33:13;10.50;;;6.28;;
29686;SDS011;16599;47.078;15.536;2023-04-24T00:35:40;9.65;;;5.63;;
29686;SDS011;16599;47.078;15.536;2023-04-24T00:38:07;13.38;;;6.20;;
29686;SDS011;16599;47.078;15.536;2023-04-24T00:40:34;9.90;;;5.75;;
29686;SDS011;16599;47.078;15.536;2023-04-24T00:43:01;15.60;;;7.05;;
29686;SDS011;16599;47.078;15.536;2023-04-24T00:45:28;10.45;;;6.72;;
29686;SDS011;16599;47.078;15.536;2023-04-24T00:47:57;10.45;;;6.50;;
29686;SDS011;16599;47.078;15.536;2023-04-24T00:50:24;10.57;;;6.28;;
29686;SDS011;16599;47.078;15.536;2023-04-24T00:52:52;8.30;;;6.13;;
29686;SDS011;16599;47.078;15.536;2023-04-24T00:55:19;10.10;;;5.85;;
29686;SDS011;16599;47.078;15.536;2023-04-24T00:57:46;9.00;;;6.53;;
29686;SDS011;16599;47.078;15.536;2023-04-24T01:00:14;10.50;;;6.38;;
29686;SDS011;16599;47.078;15.536;2023-04-24T01:02:45;9.90;;;6.45;;
29686;SDS011;16599;47.078;15.536;2023-04-24T01:05:13;10.32;;;6.82;;
29686;SDS011;16599;47.078;15.536;2023-04-24T01:07:41;8.00;;;6.25;;
29686;SDS011;16599;47.078;15.536;2023-04-24T01:10:11;11.00;;;6.05;;
29686;SDS011;16599;47.078;15.536;2023-04-24T01:12:40;8.02;;;6.30;;
29686;SDS011;16599;47.078;15.536;2023-04-24T01:15:07;9.23;;;6.50;;
29686;SDS011;16599;47.078;15.536;2023-04-24T01:17:35;11.43;;;6.90;;
29686;SDS011;16599;47.078;15.536;2023-04-24T01:20:02;8.80;;;6.22;;
29686;SDS011;16599;47.078;15.536;2023-04-24T01:22:34;18.60;;;7.47;;
29686;SDS011;16599;47.078;15.536;2023-04-24T01:25:01;9.48;;;5.97;;
29686;SDS011;16599;47.078;15.536;2023-04-24T01:27:29;9.00;;;5.95;;
29686;SDS011;16599;47.078;15.536;2023-04-24T01:29:56;8.57;;;5.85;;
29686;SDS011;16599;47.078;15.536;2023-04-24T01:32:23;6.38;;;4.97;;
29686;SDS011;16599;47.078;15.536;2023-04-24T01:34:51;8.88;;;5.65;;
29686;SDS011;16599;47.078;15.536;2023-04-24T01:37:18;9.95;;;5.90;;
29686;SDS011;16599;47.078;15.536;2023-04-24T01:39:45;5.70;;;4.82;;
29686;SDS011;16599;47.078;15.536;2023-04-24T01:42:12;7.32;;;5.00;;
29686;SDS011;16599;47.078;15.536;2023-04-24T01:44:39;9.23;;;5.72;;
29686;SDS011;16599;47.078;15.536;2023-04-24T01:47:07;10.70;;;6.03;;
29686;SDS011;16599;47.078;15.536;2023-04-24T01:49:34;12.30;;;5.20;;
29686;SDS011;16599;47.078;15.536;2023-04-24T01:52:01;9.10;;;5.95;;
29686;SDS011;16599;47.078;15.536;2023-04-24T01:54:28;11.73;;;6.68;;
29686;SDS011;16599;47.078;15.536;2023-04-24T01:56:54;10.52;;;6.13;;
29686;SDS011;16599;47.078;15.536;2023-04-24T01:59:21;12.30;;;6.18;;
29686;SDS011;16599;47.078;15.536;2023-04-24T02:01:51;9.93;;;7.20;;
29686;SDS011;16599;47.078;15.536;2023-04-24T02:04:18;7.72;;;5.95;;
29686;SDS011;16599;47.078;15.536;2023-04-24T02:06:45;12.77;;;6.05;;
29686;SDS011;16599;47.078;15.536;2023-04-24T02:09:12;11.30;;;6.10;;
29686;SDS011;16599;47.078;15.536;2023-04-24T02:11:38;9.88;;;5.60;;
29686;SDS011;16599;47.078;15.536;2023-04-24T02:14:05;8.00;;;6.18;;
29686;SDS011;16599;47.078;15.536;2023-04-24T02:16:32;11.50;;;6.63;;
29686;SDS011;16599;47.078;15.536;2023-04-24T02:19:00;9.13;;;5.53;;
29686;SDS011;16599;47.078;15.536;2023-04-24T02:21:26;11.20;;;7.72;;
29686;SDS011;16599;47.078;15.536;2023-04-24T02:23:54;13.07;;;8.50;;
29686;SDS011;16599;47.078;15.536;2023-04-24T02:26:21;13.45;;;7.75;;
29686;SDS011;16599;47.078;15.536;2023-04-24T02:28:48;12.35;;;7.00;;
29686;SDS011;16599;47.078;15.536;2023-04-24T02:31:14;12.93;;;7.32;;
29686;SDS011;16599;47.078;15.536;2023-04-24T02:33:41;13.27;;;8.15;;
29686;SDS011;16599;47.078;15.536;2023-04-24T02:36:08;12.98;;;7.93;;
29686;SDS011;16599;47.078;15.536;2023-04-24T02:38:35;11.00;;;7.30;;
29686;SDS011;16599;47.078;15.536;2023-04-24T02:41:02;11.70;;;7.05;;
29686;SDS011;16599;47.078;15.536;2023-04-24T02:43:32;13.20;;;6.75;;
29686;SDS011;16599;47.078;15.536;2023-04-24T02:45:59;12.07;;;7.63;;
29686;SDS011;16599;47.078;15.536;2023-04-24T02:48:26;11.77;;;7.25;;
29686;SDS011;16599;47.078;15.536;2023-04-24T02:50:53;15.88;;;6.97;;
29686;SDS011;16599;47.078;15.536;2023-04-24T02:53:20;8.07;;;7.07;;
29686;SDS011;16599;47.078;15.536;2023-04-24T02:55:47;53.83;;;21.00;;
29686;SDS011;16599;47.078;15.536;2023-04-24T02:58:14;20.65;;;11.82;;
29686;SDS011;16599;47.078;15.536;2023-04-24T03:00:41;14.95;;;8.88;;
29686;SDS011;16599;47.078;15.536;2023-04-24T03:03:09;11.60;;;7.13;;
29686;SDS011;16599;47.078;15.536;2023-04-24T03:05:36;11.55;;;8.27;;
29686;SDS011;16599;47.078;15.536;2023-04-24T03:08:03;18.67;;;13.38;;
29686;SDS011;16599;47.078;15.536;2023-04-24T03:10:30;19.92;;;13.00;;
29686;SDS011;16599;47.078;15.536;2023-04-24T03:12:58;11.90;;;8.00;;
29686;SDS011;16599;47.078;15.536;2023-04-24T03:15:25;12.02;;;7.40;;
29686;SDS011;16599;47.078;15.536;2023-04-24T03:17:52;15.65;;;7.63;;
29686;SDS011;16599;47.078;15.536;2023-04-24T03:20:22;10.90;;;7.45;;
29686;SDS011;16599;47.078;15.536;2023-04-24T03:22:48;11.23;;;7.65;;
29686;SDS011;16599;47.078;15.536;2023-04-24T03:25:15;10.18;;;7.45;;
29686;SDS011;16599;47.078;15.536;2023-04-24T03:27:42;15.40;;;7.90;;
29686;SDS011;16599;47.078;15.536;2023-04-24T03:30:09;10.63;;;7.85;;
29686;SDS011;16599;47.078;15.536;2023-04-24T03:32:36;11.23;;;7.55;;
29686;SDS011;16599;47.078;15.536;2023-04-24T03:35:08;12.10;;;8.15;;
29686;SDS011;16599;47.078;15.536;2023-04-24T03:37:35;10.65;;;7.00;;
29686;SDS011;16599;47.078;15.536;2023-04-24T03:40:02;11.35;;;7.05;;
29686;SDS011;16599;47.078;15.536;2023-04-24T03:42:29;13.10;;;6.90;;
29686;SDS011;16599;47.078;15.536;2023-04-24T03:44:56;12.50;;;7.63;;
29686;SDS011;16599;47.078;15.536;2023-04-24T03:47:23;14.48;;;7.35;;
29686;SDS011;16599;47.078;15.536;2023-04-24T03:49:49;13.52;;;7.63;;
29686;SDS011;16599;47.078;15.536;2023-04-24T03:52:17;14.20;;;7.65;;
29686;SDS011;16599;47.078;15.536;2023-04-24T03:54:44;16.80;;;7.70;;
29686;SDS011;16599;47.078;15.536;2023-04-24T03:57:10;13.85;;;7.82;;
29686;SDS011;16599;47.078;15.536;2023-04-24T03:59:37;12.80;;;7.05;;
29686;SDS011;16599;47.078;15.536;2023-04-24T04:02:04;12.80;;;7.50;;
29686;SDS011;16599;47.078;15.536;2023-04-24T04:04:31;12.48;;;7.45;;
29686;SDS011;16599;47.078;15.536;2023-04-24T04:06:58;11.27;;;7.25;;
29686;SDS011;16599;47.078;15.536;2023-04-24T04:09:27;10.23;;;6.80;;
29686;SDS011;16599;47.078;15.536;2023-04-24T04:11:54;16.45;;;6.97;;
29686;SDS011;16599;47.078;15.536;2023-04-24T04:14:21;15.05;;;8.55;;
29686;SDS011;16599;47.078;15.536;2023-04-24T04:16:49;13.07;;;7.80;;
29686;SDS011;16599;47.078;15.536;2023-04-24T04:19:19;13.15;;;8.05;;
29686;SDS011;16599;47.078;15.536;2023-04-24T04:21:46;8.25;;;6.90;;
29686;SDS011;16599;47.078;15.536;2023-04-24T04:24:18;10.77;;;7.22;;
29686;SDS011;16599;47.078;15.536;2023-04-24T04:26:46;11.75;;;6.40;;
29686;SDS011;16599;47.078;15.536;2023-04-24T04:29:13;12.68;;;7.95;;
29686;SDS011;16599;47.078;15.536;2023-04-24T04:31:44;11.98;;;8.13;;
29686;SDS011;16599;47.078;15.536;2023-04-24T04:34:11;13.88;;;9.10;;
29686;SDS011;16599;47.078;15.536;2023-04-24T04:36:38;13.57;;;9.30;;
29686;SDS011;16599;47.078;15.536;2023-04-24T04:39:06;13.07;;;9.30;;
29686;SDS011;16599;47.078;15.536;2023-04-24T04:41:33;13.38;;;7.75;;
29686;SDS011;16599;47.078;15.536;2023-04-24T04:44:03;12.43;;;7.85;;
29686;SDS011;16599;47.078;15.536;2023-04-24T04:46:31;15.18;;;7.78;;
29686;SDS011;16599;47.078;15.536;2023-04-24T04:48:59;10.13;;;8.02;;
29686;SDS011;16599;47.078;15.536;2023-04-24T04:51:27;9.38;;;7.55;;
29686;SDS011;16599;47.078;15.536;2023-04-24T04:53:54;16.60;;;8.43;;
29686;SDS011;16599;47.078;15.536;2023-04-24T04:56:21;20.48;;;11.45;;
29686;SDS011;16599;47.078;15.536;2023-04-24T04:58:48;16.95;;;11.35;;
29686;SDS011;16599;47.078;15.536;2023-04-24T05:01:15;15.63;;;11.02;;
29686;SDS011;16599;47.078;15.536;2023-04-24T05:03:42;18.77;;;15.20;;
29686;SDS011;16599;47.078;15.536;2023-04-24T05:06:09;17.25;;;10.68;;
29686;SDS011;16599;47.078;15.536;2023-04-24T05:08:36;19.25;;;11.40;;
29686;SDS011;16599;47.078;15.536;2023-04-24T05:11:03;18.77;;;10.82;;
29686;SDS011;16599;47.078;15.536;2023-04-24T05:13:29;25.05;;;12.68;;
29686;SDS011;16599;47.078;15.536;2023-04-24T05:16:06;18.25;;;11.43;;
29686;SDS011;16599;47.078;15.536;2023-04-24T05:18:33;21.27;;;11.10;;
29686;SDS011;16599;47.078;15.536;2023-04-24T05:21:00;22.67;;;12.73;;
29686;SDS011;16599;47.078;15.536;2023-04-24T05:23:27;14.90;;;10.38;;
29686;SDS011;16599;47.078;15.536;2023-04-24T05:25:54;19.55;;;11.00;;
29686;SDS011;16599;47.078;15.536;2023-04-24T05:28:21;22.67;;;10.73;;
29686;SDS011;16599;47.078;15.536;2023-04-24T05:30:48;19.30;;;11.48;;
29686;SDS011;16599;47.078;15.536;2023-04-24T05:33:15;17.88;;;11.50;;
29686;SDS011;16599;47.078;15.536;2023-04-24T05:35:41;20.42;;;10.80;;
29686;SDS011;16599;47.078;15.536;2023-04-24T05:38:13;15.35;;;10.88;;
29686;SDS011;16599;47.078;15.536;2023-04-24T05:40:40;14.50;;;10.48;;
29686;SDS011;16599;47.078;15.536;2023-04-24T05:43:07;15.07;;;11.85;;
29686;SDS011;16599;47.078;15.536;2023-04-24T05:45:34;22.10;;;11.48;;
29686;SDS011;16599;47.078;15.536;2023-04-24T05:48:02;17.80;;;10.25;;
29686;SDS011;16599;47.078;15.536;2023-04-24T05:50:29;16.80;;;11.18;;
29686;SDS011;16599;47.078;15.536;2023-04-24T05:52:56;16.77;;;11.77;;
29686;SDS011;16599;47.078;15.536;2023-04-24T05:55:28;20.58;;;12.13;;
29686;SDS011;16599;47.078;15.536;2023-04-24T05:57:54;16.23;;;10.68;;
29686;SDS011;16599;47.078;15.536;2023-04-24T06:00:21;19.27;;;11.32;;
29686;SDS011;16599;47.078;15.536;2023-04-24T06:02:48;15.43;;;12.00;;
29686;SDS011;16599;47.078;15.536;2023-04-24T06:05:15;20.25;;;11.32;;
29686;SDS011;16599;47.078;15.536;2023-04-24T06:07:44;16.60;;;11.98;;
29686;SDS011;16599;47.078;15.536;2023-04-24T06:10:11;16.02;;;11.88;;
29686;SDS011;16599;47.078;15.536;2023-04-24T06:12:37;14.30;;;11.27;;
29686;SDS011;16599;47.078;15.536;2023-04-24T06:15:04;17.08;;;12.30;;
29686;SDS011;16599;47.078;15.536;2023-04-24T06:17:32;24.80;;;13.93;;
29686;SDS011;16599;47.078;15.536;2023-04-24T06:19:59;18.90;;;12.13;;
29686;SDS011;16599;47.078;15.536;2023-04-24T06:22:25;18.60;;;13.07;;
29686;SDS011;16599;47.078;15.536;2023-04-24T06:24:52;19.45;;;12.55;;
29686;SDS011;16599;47.078;15.536;2023-04-24T06:27:19;17.40;;;13.13;;
29686;SDS011;16599;47.078;15.536;2023-04-24T06:29:46;21.85;;;12.52;;
29686;SDS011;16599;47.078;15.536;2023-04-24T06:32:23;21.45;;;13.88;;
29686;SDS011;16599;47.078;15.536;2023-04-24T06:34:51;20.48;;;14.32;;
29686;SDS011;16599;47.078;15.536;2023-04-24T06:37:19;20.65;;;14.40;;
29686;SDS011;16599;47.078;15.536;2023-04-24T06:39:47;18.15;;;13.95;;
29686;SDS011;16599;47.078;15.536;2023-04-24T06:42:13;22.45;;;15.40;;
29686;SDS011;16599;47.078;15.536;2023-04-24T06:44:40;28.58;;;16.63;;
29686;SDS011;16599;47.078;15.536;2023-04-24T06:47:07;26.80;;;15.73;;
29686;SDS011;16599;47.078;15.536;2023-04-24T06:49:38;20.88;;;14.65;;
29686;SDS011;16599;47.078;15.536;2023-04-24T06:52:05;23.38;;;15.40;;
29686;SDS011;16599;47.078;15.536;2023-04-24T06:54:32;23.15;;;14.35;;
29686;SDS011;16599;47.078;15.536;2023-04-24T06:56:59;20.95;;;14.25;;
29686;SDS011;16599;47.078;15.536;2023-04-24T06:59:27;21.50;;;13.85;;
29686;SDS011;16599;47.078;15.536;2023-04-24T07:01:54;19.40;;;12.50;;
29686;SDS011;16599;47.078;15.536;2023-04-24T07:04:21;16.75;;;12.75;;
29686;SDS011;16599;47.078;15.536;2023-04-24T07:06:49;16.33;;;11.40;;
29686;SDS011;16599;47.078;15.536;2023-04-24T07:09:15;24.33;;;11.77;;
29686;SDS011;16599;47.078;15.536;2023-04-24T07:11:45;17.48;;;12.02;;
29686;SDS011;16599;47.078;15.536;2023-04-24T07:14:12;20.75;;;11.73;;
29686;SDS011;16599;47.078;15.536;2023-04-24T07:16:38;14.63;;;11.60;;
29686;SDS011;16599;47.078;15.536;2023-04-24T07:19:06;18.10;;;12.23;;
29686;SDS011;16599;47.078;15.536;2023-04-24T07:21:33;19.83;;;13.15;;
29686;SDS011;16599;47.078;15.536;2023-04-24T07:24:00;17.60;;;12.27;;
29686;SDS011;16599;47.078;15.536;2023-04-24T07:26:28;22.20;;;12.55;;
29686;SDS011;16599;47.078;15.536;2023-04-24T07:28:56;19.33;;;13.23;;
29686;SDS011;16599;47.078;15.536;2023-04-24T07:31:22;20.30;;;13.57;;
29686;SDS011;16599;47.078;15.536;2023-04-24T07:33:49;16.70;;;12.73;;
29686;SDS011;16599;47.078;15.536;2023-04-24T07:36:16;16.10;;;11.80;;
29686;SDS011;16599;47.078;15.536;2023-04-24T07:38:45;18.17;;;11.60;;
29686;SDS011;16599;47.078;15.536;2023-04-24T07:41:12;19.58;;;12.18;;
29686;SDS011;16599;47.078;15.536;2023-04-24T07:43:40;17.05;;;12.25;;
29686;SDS011;16599;47.078;15.536;2023-04-24T07:46:07;17.85;;;12.80;;
29686;SDS011;16599;47.078;15.536;2023-04-24T07:48:35;26.17;;;17.38;;
29686;SDS011;16599;47.078;15.536;2023-04-24T07:51:02;24.02;;;14.38;;
29686;SDS011;16599;47.078;15.536;2023-04-24T07:53:29;27.63;;;16.63;;
29686;SDS011;16599;47.078;15.536;2023-04-24T07:55:56;24.45;;;16.08;;
29686;SDS011;16599;47.078;15.536;2023-04-24T07:58:23;27.75;;;16.45;;
29686;SDS011;16599;47.078;15.536;2023-04-24T08:00:50;24.20;;;15.88;;
29686;SDS011;16599;47.078;15.536;2023-04-24T08:03:17;25.33;;;15.80;;
29686;SDS011;16599;47.078;15.536;2023-04-24T08:05:46;32.03;;;17.50;;
29686;SDS011;16599;47.078;15.536;2023-04-24T08:08:13;30.60;;;17.20;;
29686;SDS011;16599;47.078;15.536;2023-04-24T08:10:40;23.92;;;15.82;;
29686;SDS011;16599;47.078;15.536;2023-04-24T08:13:07;26.67;;;16.17;;
29686;SDS011;16599;47.078;15.536;2023-04-24T08:15:34;28.13;;;16.52;;
29686;SDS011;16599;47.078;15.536;2023-04-24T08:18:01;33.75;;;17.50;;
29686;SDS011;16599;47.078;15.536;2023-04-24T08:20:28;30.10;;;17.90;;
29686;SDS011;16599;47.078;15.536;2023-04-24T08:22:55;27.70;;;17.05;;
29686;SDS011;16599;47.078;15.536;2023-04-24T08:25:22;26.85;;;17.75;;
29686;SDS011;16599;47.078;15.536;2023-04-24T08:27:51;32.80;;;17.85;;
29686;SDS011;16599;47.078;15.536;2023-04-24T08:30:18;30.20;;;18.42;;
29686;SDS011;16599;47.078;15.536;2023-04-24T08:36:32;30.90;;;18.02;;
29686;SDS011;16599;47.078;15.536;2023-04-24T08:39:18;38.13;;;19.75;;
29686;SDS011;16599;47.078;15.536;2023-04-24T08:41:46;33.70;;;19.35;;
29686;SDS011;16599;47.078;15.536;2023-04-24T08:44:15;34.33;;;20.20;;
29686;SDS011;16599;47.078;15.536;2023-04-24T08:46:43;37.20;;;19.80;;
29686;SDS011;16599;47.078;15.536;2023-04-24T08:49:14;35.25;;;21.13;;
29686;SDS011;16599;47.078;15.536;2023-04-24T08:51:43;32.22;;;19.05;;
29686;SDS011;16599;47.078;15.536;2023-04-24T08:54:11;30.42;;;20.05;;
29686;SDS011;16599;47.078;15.536;2023-04-24T08:56:39;36.72;;;19.83;;
29686;SDS011;16599;47.078;15.536;2023-04-24T08:59:09;29.75;;;19.70;;
29686;SDS011;16599;47.078;15.536;2023-04-24T09:01:37;35.53;;;19.10;;
29686;SDS011;16599;47.078;15.536;2023-04-24T09:04:08;33.05;;;18.45;;
29686;SDS011;16599;47.078;15.536;2023-04-24T09:06:41;30.42;;;19.17;;
29686;SDS011;16599;47.078;15.536;2023-04-24T09:09:08;28.23;;;18.10;;
29686;SDS011;16599;47.078;15.536;2023-04-24T09:11:37;28.98;;;18.25;;
29686;SDS011;16599;47.078;15.536;2023-04-24T09:14:05;27.67;;;17.77;;
29686;SDS011;16599;47.078;15.536;2023-04-24T09:16:35;28.70;;;17.60;;
29686;SDS011;16599;47.078;15.536;2023-04-24T09:19:02;29.38;;;18.23;;
29686;SDS011;16599;47.078;15.536;2023-04-24T09:21:33;31.30;;;17.63;;
29686;SDS011;16599;47.078;15.536;2023-04-24T09:24:01;27.05;;;18.13;;
29686;SDS011;16599;47.078;15.536;2023-04-24T09:26:31;29.30;;;16.88;;
29686;SDS011;16599;47.078;15.536;2023-04-24T09:29:01;30.90;;;21.30;;
29686;SDS011;16599;47.078;15.536;2023-04-24T09:31:30;32.85;;;18.00;;
29686;SDS011;16599;47.078;15.536;2023-04-24T09:33:57;27.02;;;15.25;;
29686;SDS011;16599;47.078;15.536;2023-04-24T09:39:05;25.52;;;15.57;;
29686;SDS011;16599;47.078;15.536;2023-04-24T09:41:49;23.83;;;15.35;;
29686;SDS011;16599;47.078;15.536;2023-04-24T09:44:23;24.10;;;15.40;;
29686;SDS011;16599;47.078;15.536;2023-04-24T09:46:52;21.70;;;14.63;;
29686;SDS011;16599;47.078;15.536;2023-04-24T09:49:24;26.13;;;15.98;;
29686;SDS011;16599;47.078;15.536;2023-04-24T09:54:39;22.55;;;14.13;;
29686;SDS011;16599;47.078;15.536;2023-04-24T09:57:09;13.80;;;7.55;;
29686;SDS011;16599;47.078;15.536;2023-04-24T09:59:39;14.13;;;8.88;;
29686;SDS011;16599;47.078;15.536;2023-04-24T10:02:17;10.43;;;5.78;;
29686;SDS011;16599;47.078;15.536;2023-04-24T10:04:55;5.93;;;4.25;;
29686;SDS011;16599;47.078;15.536;2023-04-24T10:07:25;5.95;;;3.10;;
29686;SDS011;16599;47.078;15.536;2023-04-24T10:09:52;6.47;;;3.28;;
29686;SDS011;16599;47.078;15.536;2023-04-24T10:12:20;3.92;;;2.67;;
29686;SDS011;16599;47.078;15.536;2023-04-24T10:14:48;4.85;;;2.78;;
29686;SDS011;16599;47.078;15.536;2023-04-24T10:17:16;4.25;;;2.92;;
29686;SDS011;16599;47.078;15.536;2023-04-24T10:19:46;2.45;;;2.25;;
29686;SDS011;16599;47.078;15.536;2023-04-24T10:22:14;3.28;;;2.33;;
29686;SDS011;16599;47.078;15.536;2023-04-24T10:24:44;3.92;;;2.55;;
29686;SDS011;16599;47.078;15.536;2023-04-24T10:27:13;6.55;;;2.72;;
29686;SDS011;16599;47.078;15.536;2023-04-24T10:29:41;2.50;;;1.80;;
29686;SDS011;16599;47.078;15.536;2023-04-24T10:32:10;3.88;;;2.45;;
29686;SDS011;16599;47.078;15.536;2023-04-24T10:34:37;3.38;;;2.20;;
29686;SDS011;16599;47.078;15.536;2023-04-24T10:37:04;2.30;;;2.10;;
29686;SDS011;16599;47.078;15.536;2023-04-24T10:39:31;2.83;;;2.22;;
29686;SDS011;16599;47.078;15.536;2023-04-24T10:41:59;5.22;;;1.95;;
29686;SDS011;16599;47.078;15.536;2023-04-24T10:44:27;6.25;;;1.75;;
29686;SDS011;16599;47.078;15.536;2023-04-24T10:47:02;2.10;;;1.70;;
29686;SDS011;16599;47.078;15.536;2023-04-24T10:49:30;4.05;;;1.67;;
29686;SDS011;16599;47.078;15.536;2023-04-24T10:52:04;4.05;;;1.83;;
29686;SDS011;16599;47.078;15.536;2023-04-24T11:02:45;1.92;;;1.00;;
29686;SDS011;16599;47.078;15.536;2023-04-24T11:05:19;1.30;;;0.82;;
29686;SDS011;16599;47.078;15.536;2023-04-24T11:10:46;3.05;;;1.52;;
29686;SDS011;16599;47.078;15.536;2023-04-24T11:13:21;1.45;;;0.80;;
29686;SDS011;16599;47.078;15.536;2023-04-24T11:16:11;2.50;;;1.00;;
29686;SDS011;16599;47.078;15.536;2023-04-24T11:18:57;0.95;;;0.88;;
29686;SDS011;16599;47.078;15.536;2023-04-24T11:24:32;0.60;;;0.60;;
29686;SDS011;16599;47.078;15.536;2023-04-24T11:27:04;1.73;;;0.60;;
29686;SDS011;16599;47.078;15.536;2023-04-24T11:32:24;1.73;;;0.60;;
29686;SDS011;16599;47.078;15.536;2023-04-24T11:35:20;0.55;;;0.55;;
29686;SDS011;16599;47.078;15.536;2023-04-24T11:37:51;2.60;;;0.80;;
29686;SDS011;16599;47.078;15.536;2023-04-24T11:40:39;2.28;;;0.68;;
29686;SDS011;16599;47.078;15.536;2023-04-24T11:43:06;0.85;;;0.40;;
29686;SDS011;16599;47.078;15.536;2023-04-24T11:45:34;0.57;;;0.43;;
29686;SDS011;16599;47.078;15.536;2023-04-24T11:48:02;0.85;;;0.60;;
29686;SDS011;16599;47.078;15.536;2023-04-24T11:50:30;0.98;;;0.65;;
29686;SDS011;16599;47.078;15.536;2023-04-24T11:52:57;1.35;;;0.70;;
29686;SDS011;16599;47.078;15.536;2023-04-24T11:55:25;1.00;;;0.70;;
29686;SDS011;16599;47.078;15.536;2023-04-24T11:57:54;1.45;;;0.60;;
29686;SDS011;16599;47.078;15.536;2023-04-24T12:00:25;0.68;;;0.50;;
29686;SDS011;16599;47.078;15.536;2023-04-24T12:03:08;0.63;;;0.60;;
29686;SDS011;16599;47.078;15.536;2023-04-24T12:05:39;0.80;;;0.63;;
29686;SDS011;16599;47.078;15.536;2023-04-24T12:08:36;2.33;;;0.70;;
29686;SDS011;16599;47.078;15.536;2023-04-24T12:11:04;1.02;;;0.88;;
29686;SDS011;16599;47.078;15.536;2023-04-24T12:13:35;0.85;;;0.73;;
29686;SDS011;16599;47.078;15.536;2023-04-24T12:16:03;1.10;;;1.00;;
29686;SDS011;16599;47.078;15.536;2023-04-24T12:18:31;3.60;;;0.63;;
29686;SDS011;16599;47.078;15.536;2023-04-24T12:23:48;4.15;;;0.90;;
29686;SDS011;16599;47.078;15.536;2023-04-24T12:26:18;3.25;;;0.60;;
29686;SDS011;16599;47.078;15.536;2023-04-24T12:28:47;0.90;;;0.80;;
29686;SDS011;16599;47.078;15.536;2023-04-24T12:31:15;3.00;;;0.70;;
29686;SDS011;16599;47.078;15.536;2023-04-24T12:33:43;2.35;;;0.70;;
29686;SDS011;16599;47.078;15.536;2023-04-24T12:36:10;0.60;;;0.60;;
29686;SDS011;16599;47.078;15.536;2023-04-24T12:38:38;2.67;;;0.77;;
29686;SDS011;16599;47.078;15.536;2023-04-24T12:41:11;5.30;;;1.08;;
29686;SDS011;16599;47.078;15.536;2023-04-24T12:43:50;3.88;;;0.90;;
29686;SDS011;16599;47.078;15.536;2023-04-24T12:46:17;3.35;;;0.98;;
29686;SDS011;16599;47.078;15.536;2023-04-24T12:48:47;3.17;;;0.80;;
29686;SDS011;16599;47.078;15.536;2023-04-24T12:51:14;2.15;;;0.75;;
29686;SDS011;16599;47.078;15.536;2023-04-24T12:53:41;2.83;;;0.50;;
29686;SDS011;16599;47.078;15.536;2023-04-24T12:56:08;0.73;;;0.50;;
29686;SDS011;16599;47.078;15.536;2023-04-24T12:58:35;3.90;;;0.90;;
29686;SDS011;16599;47.078;15.536;2023-04-24T13:01:02;1.42;;;0.65;;
29686;SDS011;16599;47.078;15.536;2023-04-24T13:03:29;2.53;;;0.60;;
29686;SDS011;16599;47.078;15.536;2023-04-24T13:05:56;1.25;;;0.68;;
29686;SDS011;16599;47.078;15.536;2023-04-24T13:08:23;0.60;;;0.55;;
29686;SDS011;16599;47.078;15.536;2023-04-24T13:10:50;0.60;;;0.60;;
29686;SDS011;16599;47.078;15.536;2023-04-24T13:13:18;0.70;;;0.70;;
29686;SDS011;16599;47.078;15.536;2023-04-24T13:15:45;1.25;;;1.00;;
29686;SDS011;16599;47.078;15.536;2023-04-24T13:18:11;1.27;;;0.70;;
29686;SDS011;16599;47.078;15.536;2023-04-24T13:20:38;1.88;;;1.00;;
29686;SDS011;16599;47.078;15.536;2023-04-24T13:23:06;0.80;;;0.80;;
29686;SDS011;16599;47.078;15.536;2023-04-24T13:25:35;1.00;;;0.93;;
29686;SDS011;16599;47.078;15.536;2023-04-24T13:28:03;1.83;;;0.80;;
29686;SDS011;16599;47.078;15.536;2023-04-24T13:30:31;1.70;;;0.80;;
29686;SDS011;16599;47.078;15.536;2023-04-24T13:32:58;0.93;;;0.82;;
29686;SDS011;16599;47.078;15.536;2023-04-24T13:35:25;2.35;;;0.90;;
29686;SDS011;16599;47.078;15.536;2023-04-24T13:37:52;1.20;;;0.82;;
29686;SDS011;16599;47.078;15.536;2023-04-24T13:40:18;2.40;;;0.90;;
29686;SDS011;16599;47.078;15.536;2023-04-24T13:42:45;1.20;;;0.90;;
29686;SDS011;16599;47.078;15.536;2023-04-24T13:45:12;1.27;;;1.00;;
29686;SDS011;16599;47.078;15.536;2023-04-24T13:47:50;3.63;;;1.15;;
29686;SDS011;16599;47.078;15.536;2023-04-24T13:50:18;0.80;;;0.80;;
29686;SDS011;16599;47.078;15.536;2023-04-24T13:52:46;1.63;;;1.33;;
29686;SDS011;16599;47.078;15.536;2023-04-24T13:55:13;0.93;;;0.90;;
29686;SDS011;16599;47.078;15.536;2023-04-24T13:57:39;1.20;;;0.70;;
29686;SDS011;16599;47.078;15.536;2023-04-24T14:00:07;1.88;;;1.00;;
29686;SDS011;16599;47.078;15.536;2023-04-24T14:02:36;1.20;;;0.93;;
29686;SDS011;16599;47.078;15.536;2023-04-24T14:05:03;1.00;;;1.00;;
29686;SDS011;16599;47.078;15.536;2023-04-24T14:07:32;3.50;;;1.13;;
29686;SDS011;16599;47.078;15.536;2023-04-24T14:09:59;2.28;;;1.40;;
29686;SDS011;16599;47.078;15.536;2023-04-24T14:12:26;1.38;;;1.00;;
29686;SDS011;16599;47.078;15.536;2023-04-24T14:14:53;2.45;;;1.38;;
29686;SDS011;16599;47.078;15.536;2023-04-24T14:17:20;2.40;;;1.35;;
29686;SDS011;16599;47.078;15.536;2023-04-24T14:19:46;1.88;;;1.38;;
29686;SDS011;16599;47.078;15.536;2023-04-24T14:22:13;3.08;;;1.45;;
29686;SDS011;16599;47.078;15.536;2023-04-24T14:24:40;1.63;;;1.20;;
29686;SDS011;16599;47.078;15.536;2023-04-24T14:27:07;2.30;;;1.50;;
29686;SDS011;16599;47.078;15.536;2023-04-24T14:29:34;2.30;;;1.02;;
29686;SDS011;16599;47.078;15.536;2023-04-24T14:32:01;2.03;;;1.25;;
29686;SDS011;16599;47.078;15.536;2023-04-24T14:34:28;10.95;;;3.85;;
29686;SDS011;16599;47.078;15.536;2023-04-24T14:36:54;16.05;;;14.57;;
29686;SDS011;16599;47.078;15.536;2023-04-24T14:39:21;24.65;;;22.15;;
29686;SDS011;16599;47.078;15.536;2023-04-24T14:41:48;2.42;;;2.22;;
29686;SDS011;16599;47.078;15.536;2023-04-24T14:44:15;1.77;;;1.05;;
29686;SDS011;16599;47.078;15.536;2023-04-24T14:46:42;2.72;;;1.20;;
29686;SDS011;16599;47.078;15.536;2023-04-24T14:49:09;2.67;;;1.52;;
29686;SDS011;16599;47.078;15.536;2023-04-24T14:51:36;6.03;;;2.00;;
29686;SDS011;16599;47.078;15.536;2023-04-24T14:54:03;3.67;;;1.08;;
29686;SDS011;16599;47.078;15.536;2023-04-24T14:56:29;0.77;;;0.77;;